createdAt,value
2023-04-02T00:00:58.630Z,987.47
2023-04-02T00:01:58.543Z,987.46
2023-04-02T00:02:58.567Z,987.49
2023-04-02T00:03:58.517Z,987.46
2023-04-02T00:04:58.377Z,987.44
2023-04-02T00:05:58.291Z,987.49
2023-04-02T00:06:58.258Z,987.56
2023-04-02T00:07:58.144Z,987.53
2023-04-02T00:08:58.116Z,987.57
2023-04-02T00:09:58.064Z,987.60
2023-04-02T00:10:57.971Z,987.62
2023-04-02T00:11:57.935Z,987.66
2023-04-02T00:12:57.852Z,987.67
2023-04-02T00:13:57.754Z,987.67
2023-04-02T00:14:57.778Z,987.71
2023-04-02T00:15:57.815Z,987.75
2023-04-02T00:16:57.636Z,987.72
2023-04-02T00:17:57.597Z,987.78
2023-04-02T00:18:57.466Z,987.84
2023-04-02T00:19:57.402Z,987.82
2023-04-02T00:20:57.338Z,987.83
2023-04-02T00:21:57.247Z,987.88
2023-04-02T00:22:57.210Z,987.86
2023-04-02T00:23:57.147Z,987.86
2023-04-02T00:24:57.099Z,987.86
2023-04-02T00:25:57.021Z,987.91
2023-04-02T00:26:56.950Z,987.93
2023-04-02T00:27:56.874Z,987.98
2023-04-02T00:28:56.814Z,987.97
2023-04-02T00:29:56.740Z,987.98
2023-04-02T00:30:56.685Z,988.03
2023-04-02T00:31:56.655Z,988.04
2023-04-02T00:32:56.653Z,988.07
2023-04-02T00:33:56.514Z,988.06
2023-04-02T00:34:56.447Z,988.11
2023-04-02T00:35:56.443Z,988.11
2023-04-02T00:36:56.334Z,988.07
2023-04-02T00:37:56.303Z,988.15
2023-04-02T00:39:00.226Z,988.18
2023-04-02T00:39:56.107Z,988.21
2023-04-02T00:40:56.088Z,988.16
2023-04-02T00:41:56.094Z,988.17
2023-04-02T00:42:55.948Z,988.17
2023-04-02T00:43:55.913Z,988.20
2023-04-02T00:44:55.850Z,988.22
2023-04-02T00:45:55.874Z,988.23
2023-04-02T00:46:55.716Z,988.24
2023-04-02T00:47:55.641Z,988.29
2023-04-02T00:48:55.593Z,988.26
2023-04-02T00:49:55.532Z,988.27
2023-04-02T00:50:55.452Z,988.26
2023-04-02T00:51:55.375Z,988.32
2023-04-02T00:52:55.309Z,988.31
2023-04-02T00:53:55.283Z,988.31
2023-04-02T00:54:55.187Z,988.35
2023-04-02T00:55:55.156Z,988.40
2023-04-02T00:56:55.397Z,988.42
2023-04-02T00:57:55.000Z,988.45
2023-04-02T00:58:54.961Z,988.41
2023-04-02T00:59:54.998Z,988.44
2023-04-02T01:00:54.815Z,988.48
2023-04-02T01:01:54.725Z,988.48
2023-04-02T01:02:54.795Z,988.52
2023-04-02T01:03:54.637Z,988.52
2023-04-02T01:04:54.551Z,988.54
2023-04-02T01:05:54.498Z,988.58
2023-04-02T01:06:54.431Z,988.56
2023-04-02T01:07:54.406Z,988.59
2023-04-02T01:08:54.352Z,988.54
2023-04-02T01:09:54.270Z,988.58
2023-04-02T01:10:54.167Z,988.63
2023-04-02T01:11:54.121Z,988.63
2023-04-02T01:12:54.045Z,988.68
2023-04-02T01:13:53.989Z,988.70
2023-04-02T01:14:53.957Z,988.70
2023-04-02T01:15:53.955Z,988.73
2023-04-02T01:16:53.763Z,988.74
2023-04-02T01:17:53.727Z,988.76
2023-04-02T01:18:53.668Z,988.75
2023-04-02T01:19:53.580Z,988.79
2023-04-02T01:20:53.602Z,988.82
2023-04-02T01:21:53.519Z,988.83
2023-04-02T01:22:53.439Z,988.87
2023-04-02T01:23:53.352Z,988.91
2023-04-02T01:24:53.265Z,988.89
2023-04-02T01:25:53.202Z,988.93
2023-04-02T01:26:53.193Z,988.94
2023-04-02T01:27:53.098Z,988.98
2023-04-02T01:28:53.072Z,989.01
2023-04-02T01:29:53.004Z,989.04
2023-04-02T01:30:52.912Z,989.03
2023-04-02T01:31:52.860Z,989.05
2023-04-02T01:35:11.258Z,989.12
2023-04-02T01:36:12.223Z,989.12
2023-04-02T01:37:12.104Z,989.11
2023-04-02T01:38:12.069Z,989.16
2023-04-02T01:39:11.969Z,989.18
2023-04-02T01:40:11.917Z,989.18
2023-04-02T01:41:11.836Z,989.22
2023-04-02T01:42:11.801Z,989.22
2023-04-02T01:43:11.713Z,989.25
2023-04-02T01:44:11.622Z,989.32
2023-04-02T01:45:11.586Z,989.26
2023-04-02T01:46:11.540Z,989.33
2023-04-02T01:47:11.435Z,989.38
2023-04-02T01:48:11.443Z,989.42
2023-04-02T01:49:11.301Z,989.42
2023-04-02T01:50:11.265Z,989.41
2023-04-02T01:51:11.202Z,989.42
2023-04-02T01:54:30.578Z,989.52
2023-04-02T01:55:31.559Z,989.54
2023-04-02T01:56:31.457Z,989.58
2023-04-02T01:57:31.418Z,989.61
2023-04-02T01:58:31.333Z,989.65
2023-04-02T01:59:31.287Z,989.62
2023-04-02T02:00:31.272Z,989.65
2023-04-02T02:01:31.120Z,989.70
2023-04-02T02:02:31.213Z,989.63
2023-04-02T02:03:30.991Z,989.70
2023-04-02T02:04:30.979Z,989.76
2023-04-02T02:05:30.927Z,989.77
2023-04-02T02:06:30.827Z,989.76
2023-04-02T02:07:30.764Z,989.79
2023-04-02T02:08:30.702Z,989.79
2023-04-02T02:09:30.628Z,989.78
2023-04-02T02:10:30.639Z,989.84
2023-04-02T02:11:34.564Z,989.81
2023-04-02T02:12:30.447Z,989.87
2023-04-02T02:13:30.437Z,989.91
2023-04-02T02:14:30.343Z,989.91
2023-04-02T02:15:30.265Z,989.97
2023-04-02T02:16:30.297Z,989.96
2023-04-02T02:17:30.164Z,989.93
2023-04-02T02:18:30.047Z,990.00
2023-04-02T02:19:30.015Z,990.00
2023-04-02T02:20:29.953Z,989.97
2023-04-02T02:21:29.858Z,990.01
2023-04-02T02:22:29.885Z,990.03
2023-04-02T02:23:29.816Z,990.06
2023-04-02T02:24:29.727Z,990.11
2023-04-02T02:25:29.643Z,990.12
2023-04-02T02:26:29.576Z,990.13
2023-04-02T02:27:29.501Z,990.11
2023-04-02T02:28:29.466Z,990.10
2023-04-02T02:31:47.907Z,990.20
2023-04-02T02:32:48.798Z,990.23
2023-04-02T02:33:48.661Z,990.25
2023-04-02T02:34:48.661Z,990.24
2023-04-02T02:35:48.596Z,990.28
2023-04-02T02:36:48.489Z,990.34
2023-04-02T02:37:48.459Z,990.33
2023-04-02T02:38:48.385Z,990.33
2023-04-02T02:39:49.312Z,990.39
2023-04-02T02:40:48.236Z,990.40
2023-04-02T02:41:48.214Z,990.45
2023-04-02T02:42:48.190Z,990.47
2023-04-02T02:43:48.060Z,990.48
2023-04-02T02:44:48.012Z,990.53
2023-04-02T02:45:47.946Z,990.51
2023-04-02T02:46:47.896Z,990.53
2023-04-02T02:47:47.822Z,990.53
2023-04-02T02:53:24.595Z,990.68
2023-04-02T02:54:25.547Z,990.70
2023-04-02T02:55:25.477Z,990.75
2023-04-02T02:56:25.416Z,990.72
2023-04-02T02:57:25.390Z,990.77
2023-04-02T02:58:25.327Z,990.79
2023-04-02T02:59:25.257Z,990.77
2023-04-02T03:00:25.165Z,990.84
2023-04-02T03:01:25.106Z,990.84
2023-04-02T03:02:25.117Z,990.85
2023-04-02T03:03:25.116Z,990.91
2023-04-02T03:04:25.245Z,990.93
2023-04-02T03:05:24.874Z,990.95
2023-04-02T03:06:24.778Z,991.01
2023-04-02T03:07:24.697Z,990.99
2023-04-02T03:08:24.642Z,990.97
2023-04-02T03:09:24.569Z,991.00
2023-04-02T03:12:42.955Z,991.06
2023-04-02T03:13:43.906Z,991.06
2023-04-02T03:14:43.835Z,991.09
2023-04-02T03:15:43.846Z,991.05
2023-04-02T03:16:43.746Z,991.14
2023-04-02T03:17:43.736Z,991.17
2023-04-02T03:18:43.620Z,991.19
2023-04-02T03:19:43.530Z,991.23
2023-04-02T03:20:43.462Z,991.20
2023-04-02T03:21:43.425Z,991.25
2023-04-02T03:22:43.339Z,991.28
2023-04-02T03:23:43.282Z,991.33
2023-04-02T03:24:43.186Z,991.34
2023-04-02T03:25:43.154Z,991.39
2023-04-02T03:26:43.120Z,991.34
2023-04-02T03:27:43.010Z,991.38
2023-04-02T03:28:42.976Z,991.41
2023-04-02T03:29:43.040Z,991.44
2023-04-02T03:30:42.841Z,991.46
2023-04-02T03:31:42.913Z,991.49
2023-04-02T03:32:42.685Z,991.46
2023-04-02T03:33:42.689Z,991.51
2023-04-02T03:34:42.614Z,991.51
2023-04-02T03:35:42.583Z,991.61
2023-04-02T03:36:42.495Z,991.60
2023-04-02T03:37:42.417Z,991.58
2023-04-02T03:38:42.282Z,991.62
2023-04-02T03:39:42.245Z,991.63
2023-04-02T03:40:42.233Z,991.65
2023-04-02T03:41:42.153Z,991.67
2023-04-02T03:42:42.069Z,991.74
2023-04-02T03:43:42.032Z,991.70
2023-04-02T03:44:41.923Z,991.81
2023-04-02T03:45:41.915Z,991.77
2023-04-02T03:46:41.881Z,991.79
2023-04-02T03:47:41.851Z,991.80
2023-04-02T03:48:42.372Z,991.80
2023-04-02T03:49:41.640Z,991.85
2023-04-02T03:50:41.548Z,991.83
2023-04-02T03:51:41.487Z,991.83
2023-04-02T03:52:41.445Z,991.88
2023-04-02T03:53:41.408Z,991.90
2023-04-02T03:54:41.315Z,991.85
2023-04-02T03:55:41.269Z,991.94
2023-04-02T03:56:41.156Z,991.91
2023-04-02T03:57:41.145Z,991.96
2023-04-02T03:58:41.088Z,991.97
2023-04-02T03:59:41.036Z,991.97
2023-04-02T04:00:40.954Z,991.97
2023-04-02T04:01:40.934Z,992.05
2023-04-02T04:02:40.841Z,992.03
2023-04-02T04:03:40.816Z,992.03
2023-04-02T04:04:40.678Z,992.07
2023-04-02T04:05:40.903Z,992.11
2023-04-02T04:06:40.551Z,992.11
2023-04-02T04:07:40.495Z,992.16
2023-04-02T04:08:40.394Z,992.11
2023-04-02T04:09:40.330Z,992.23
2023-04-02T04:10:40.296Z,992.19
2023-04-02T04:11:40.227Z,992.27
2023-04-02T04:12:40.198Z,992.29
2023-04-02T04:13:40.129Z,992.32
2023-04-02T04:14:40.054Z,992.34
2023-04-02T04:15:39.964Z,992.35
2023-04-02T04:16:40.467Z,992.39
2023-04-02T04:17:39.898Z,992.40
2023-04-02T04:18:39.826Z,992.41
2023-04-02T04:19:39.730Z,992.39
2023-04-02T04:20:39.628Z,992.43
2023-04-02T04:21:39.606Z,992.47
2023-04-02T04:22:39.525Z,992.52
2023-04-02T04:23:39.466Z,992.51
2023-04-02T04:24:39.433Z,992.57
2023-04-02T04:25:39.337Z,992.56
2023-04-02T04:26:39.306Z,992.62
2023-04-02T04:27:39.219Z,992.69
2023-04-02T04:28:39.125Z,992.68
2023-04-02T04:29:39.109Z,992.68
2023-04-02T04:30:38.998Z,992.71
2023-04-02T04:31:39.116Z,992.70
2023-04-02T04:32:38.955Z,992.71
2023-04-02T04:33:38.856Z,992.74
2023-04-02T04:34:38.729Z,992.77
2023-04-02T04:35:39.089Z,992.79
2023-04-02T04:36:38.590Z,992.78
2023-04-02T04:37:38.584Z,992.85
2023-04-02T04:38:38.493Z,992.88
2023-04-02T04:39:38.377Z,992.89
2023-04-02T04:40:38.362Z,992.95
2023-04-02T04:41:38.346Z,992.95
2023-04-02T04:42:38.218Z,992.91
2023-04-02T04:43:38.155Z,992.97
2023-04-02T04:44:38.049Z,993.01
2023-04-02T04:45:38.079Z,993.01
2023-04-02T04:46:37.961Z,993.03
2023-04-02T04:47:37.966Z,993.05
2023-04-02T04:48:37.804Z,993.11
2023-04-02T04:49:37.772Z,993.13
2023-04-02T04:50:37.717Z,993.14
2023-04-02T04:51:37.638Z,993.18
2023-04-02T04:52:37.574Z,993.19
2023-04-02T04:53:37.515Z,993.18
2023-04-02T04:54:37.474Z,993.22
2023-04-02T04:55:37.764Z,993.29
2023-04-02T04:56:37.319Z,993.29
2023-04-02T04:57:37.222Z,993.31
2023-04-02T04:58:37.169Z,993.35
2023-04-02T04:59:37.116Z,993.36
2023-04-02T05:00:37.085Z,993.34
2023-04-02T05:01:37.083Z,993.42
2023-04-02T05:02:36.987Z,993.44
2023-04-02T05:03:36.869Z,993.43
2023-04-02T05:04:36.818Z,993.46
2023-04-02T05:05:37.063Z,993.48
2023-04-02T05:06:36.678Z,993.50
2023-04-02T05:07:36.692Z,993.48
2023-04-02T05:08:36.579Z,993.51
2023-04-02T05:09:36.491Z,993.52
2023-04-02T05:10:36.420Z,993.54
2023-04-02T05:13:48.510Z,993.58
2023-04-02T05:14:49.389Z,993.59
2023-04-02T05:15:49.406Z,993.60
2023-04-02T05:16:49.293Z,993.64
2023-04-02T05:17:49.292Z,993.65
2023-04-02T05:18:49.137Z,993.68
2023-04-02T05:19:49.150Z,993.75
2023-04-02T05:20:49.058Z,993.76
2023-04-02T05:21:48.967Z,993.76
2023-04-02T05:22:48.936Z,993.78
2023-04-02T05:23:48.867Z,993.84
2023-04-02T05:24:48.807Z,993.86
2023-04-02T05:25:48.744Z,993.86
2023-04-02T05:26:48.654Z,993.90
2023-04-02T05:27:48.619Z,993.90
2023-04-02T05:28:48.498Z,993.95
2023-04-02T05:29:48.508Z,993.99
2023-04-02T05:30:48.399Z,994.02
2023-04-02T05:31:48.418Z,994.09
2023-04-02T05:32:48.291Z,994.05
2023-04-02T05:33:48.205Z,994.06
2023-04-02T05:34:48.176Z,994.15
2023-04-02T05:35:52.132Z,994.10
2023-04-02T05:36:48.042Z,994.12
2023-04-02T05:37:47.959Z,994.18
2023-04-02T05:38:47.902Z,994.24
2023-04-02T05:39:47.829Z,994.23
2023-04-02T05:40:47.766Z,994.30
2023-04-02T05:41:47.752Z,994.27
2023-04-02T05:42:47.622Z,994.32
2023-04-02T05:43:47.575Z,994.37
2023-04-02T05:44:47.512Z,994.32
2023-04-02T05:45:47.450Z,994.33
2023-04-02T05:46:47.403Z,994.39
2023-04-02T05:47:47.450Z,994.44
2023-04-02T05:48:47.251Z,994.40
2023-04-02T05:49:47.168Z,994.44
2023-04-02T05:50:47.169Z,994.46
2023-04-02T05:51:47.072Z,994.48
2023-04-02T05:52:47.035Z,994.53
2023-04-02T05:53:49.403Z,994.55
2023-04-02T05:54:46.887Z,994.57
2023-04-02T05:55:46.842Z,994.60
2023-04-02T05:56:46.768Z,994.56
2023-04-02T05:58:01.130Z,994.57
2023-04-02T05:58:46.702Z,994.62
2023-04-02T05:59:46.610Z,994.61
2023-04-02T06:00:46.471Z,994.69
2023-04-02T06:01:46.492Z,994.63
2023-04-02T06:02:46.370Z,994.68
2023-04-02T06:03:46.396Z,994.69
2023-04-02T06:04:46.251Z,994.71
2023-04-02T06:05:46.197Z,994.72
2023-04-02T06:06:46.089Z,994.78
2023-04-02T06:07:46.053Z,994.78
2023-04-02T06:08:45.990Z,994.82
2023-04-02T06:09:45.929Z,994.81
2023-04-02T06:10:45.836Z,994.83
2023-04-02T06:14:04.164Z,994.92
2023-04-02T06:15:05.125Z,994.89
2023-04-02T06:16:05.057Z,994.95
2023-04-02T06:17:05.030Z,994.90
2023-04-02T06:18:04.950Z,994.98
2023-04-02T06:19:04.846Z,995.05
2023-04-02T06:20:04.801Z,995.04
2023-04-02T06:21:04.746Z,995.06
2023-04-02T06:22:04.671Z,995.09
2023-04-02T06:23:04.580Z,995.15
2023-04-02T06:24:04.555Z,995.13
2023-04-02T06:25:04.489Z,995.11
2023-04-02T06:26:04.360Z,995.16
2023-04-02T06:27:04.354Z,995.18
2023-04-02T06:28:04.309Z,995.22
2023-04-02T06:29:04.225Z,995.20
2023-04-02T06:30:04.173Z,995.28
2023-04-02T06:31:04.135Z,995.36
2023-04-02T06:32:04.044Z,995.34
2023-04-02T06:33:03.977Z,995.35
2023-04-02T06:34:03.878Z,995.41
2023-04-02T06:35:03.820Z,995.43
2023-04-02T06:36:03.813Z,995.45
2023-04-02T06:37:03.712Z,995.45
2023-04-02T06:38:03.649Z,995.48
2023-04-02T06:39:03.592Z,995.52
2023-04-02T06:40:03.496Z,995.48
2023-04-02T06:41:03.437Z,995.57
2023-04-02T06:42:03.386Z,995.53
2023-04-02T06:43:03.609Z,995.54
2023-04-02T06:44:03.246Z,995.59
2023-04-02T06:45:03.165Z,995.60
2023-04-02T06:46:03.148Z,995.65
2023-04-02T06:47:03.073Z,995.66
2023-04-02T06:48:03.024Z,995.67
2023-04-02T06:49:02.952Z,995.71
2023-04-02T06:50:02.840Z,995.76
2023-04-02T06:51:02.822Z,995.79
2023-04-02T06:52:02.763Z,995.81
2023-04-02T06:53:02.675Z,995.81
2023-04-02T06:54:02.635Z,995.85
2023-04-02T06:55:02.570Z,995.92
2023-04-02T06:56:02.517Z,995.89
2023-04-02T06:57:02.477Z,995.94
2023-04-02T06:58:02.342Z,995.95
2023-04-02T06:59:02.327Z,996.01
2023-04-02T07:00:02.218Z,996.02
2023-04-02T07:01:02.186Z,996.06
2023-04-02T07:02:02.071Z,996.04
2023-04-02T07:03:02.080Z,996.13
2023-04-02T07:04:01.965Z,996.20
2023-04-02T07:05:01.973Z,996.19
2023-04-02T07:06:01.809Z,996.21
2023-04-02T07:07:01.759Z,996.17
2023-04-02T07:08:01.712Z,996.25
2023-04-02T07:09:01.654Z,996.26
2023-04-02T07:10:01.554Z,996.31
2023-04-02T07:11:01.483Z,996.35
2023-04-02T07:12:01.422Z,996.35
2023-04-02T07:13:01.399Z,996.34
2023-04-02T07:14:01.329Z,996.40
2023-04-02T07:15:01.281Z,996.38
2023-04-02T07:16:01.253Z,996.41
2023-04-02T07:17:01.101Z,996.41
2023-04-02T07:18:01.097Z,996.49
2023-04-02T07:19:01.081Z,996.47
2023-04-02T07:20:00.940Z,996.48
2023-04-02T07:21:00.923Z,996.56
2023-04-02T07:22:00.838Z,996.57
2023-04-02T07:23:00.749Z,996.57
2023-04-02T07:24:00.688Z,996.60
2023-04-02T07:25:00.660Z,996.70
2023-04-02T07:26:00.553Z,996.64
2023-04-02T07:27:00.487Z,996.67
2023-04-02T07:28:00.421Z,996.68
2023-04-02T07:29:00.372Z,996.70
2023-04-02T07:30:00.299Z,996.70
2023-04-02T07:31:00.283Z,996.75
2023-04-02T07:32:00.168Z,996.73
2023-04-02T07:33:00.125Z,996.71
2023-04-02T07:34:00.223Z,996.77
2023-04-02T07:34:59.952Z,996.80
2023-04-02T07:35:59.973Z,996.84
2023-04-02T07:36:59.882Z,996.78
2023-04-02T07:37:59.778Z,996.80
2023-04-02T07:38:59.751Z,996.81
2023-04-02T07:39:59.654Z,996.83
2023-04-02T07:40:59.620Z,996.82
2023-04-02T07:41:59.541Z,996.88
2023-04-02T07:43:06.964Z,996.95
2023-04-02T07:43:59.435Z,996.95
2023-04-02T07:44:59.335Z,996.95
2023-04-02T07:45:59.301Z,997.04
2023-04-02T07:46:59.293Z,997.00
2023-04-02T07:47:59.212Z,997.09
2023-04-02T07:48:59.099Z,997.03
2023-04-02T07:49:59.006Z,997.07
2023-04-02T07:50:58.926Z,997.09
2023-04-02T07:51:58.877Z,997.13
2023-04-02T07:52:58.822Z,997.11
2023-04-02T07:53:58.758Z,997.15
2023-04-02T07:54:58.690Z,997.15
2023-04-02T07:55:58.637Z,997.25
2023-04-02T07:56:58.607Z,997.23
2023-04-02T07:57:58.481Z,997.26
2023-04-02T07:58:58.476Z,997.28
2023-04-02T07:59:58.401Z,997.26
2023-04-02T08:00:58.345Z,997.28
2023-04-02T08:01:58.286Z,997.31
2023-04-02T08:02:58.292Z,997.35
2023-04-02T08:03:58.161Z,997.36
2023-04-02T08:04:58.093Z,997.45
2023-04-02T08:05:58.021Z,997.47
2023-04-02T08:06:57.911Z,997.44
2023-04-02T08:07:57.855Z,997.46
2023-04-02T08:08:57.794Z,997.54
2023-04-02T08:09:57.734Z,997.55
2023-04-02T08:10:57.652Z,997.52
2023-04-02T08:11:57.649Z,997.53
2023-04-02T08:12:57.626Z,997.61
2023-04-02T08:13:57.513Z,997.63
2023-04-02T08:14:57.421Z,997.67
2023-04-02T08:15:57.328Z,997.68
2023-04-02T08:16:57.379Z,997.63
2023-04-02T08:17:57.274Z,997.72
2023-04-02T08:23:33.858Z,997.79
2023-04-02T08:24:34.850Z,997.85
2023-04-02T08:25:34.819Z,997.84
2023-04-02T08:26:34.701Z,997.87
2023-04-02T08:27:34.603Z,997.86
2023-04-02T08:28:34.521Z,997.86
2023-04-02T08:29:34.466Z,997.85
2023-04-02T08:30:34.476Z,997.94
2023-04-02T08:31:34.359Z,997.92
2023-04-02T08:32:34.295Z,997.88
2023-04-02T08:33:34.183Z,997.91
2023-04-02T08:34:34.169Z,997.91
2023-04-02T08:35:34.764Z,997.96
2023-04-02T08:36:34.023Z,997.94
2023-04-02T08:37:33.964Z,997.96
2023-04-02T08:40:52.246Z,998.00
2023-04-02T08:41:53.188Z,998.04
2023-04-02T08:42:53.132Z,998.10
2023-04-02T08:43:53.084Z,998.08
2023-04-02T08:44:52.975Z,998.07
2023-04-02T08:45:53.258Z,998.07
2023-04-02T08:46:52.870Z,998.14
2023-04-02T08:47:52.832Z,998.12
2023-04-02T08:48:52.746Z,998.08
2023-04-02T08:49:52.677Z,998.13
2023-04-02T08:50:52.612Z,998.15
2023-04-02T08:51:52.593Z,998.19
2023-04-02T08:52:52.485Z,998.23
2023-04-02T08:53:52.420Z,998.21
2023-04-02T08:54:52.350Z,998.25
2023-04-02T08:55:52.317Z,998.34
2023-04-02T08:56:52.261Z,998.31
2023-04-02T08:57:52.190Z,998.31
2023-04-02T08:58:52.137Z,998.35
2023-04-02T08:59:52.032Z,998.38
2023-04-02T09:00:52.005Z,998.32
2023-04-02T09:01:51.952Z,998.41
2023-04-02T09:02:51.906Z,998.40
2023-04-02T09:03:51.796Z,998.39
2023-04-02T09:04:51.769Z,998.43
2023-04-02T09:05:51.697Z,998.45
2023-04-02T09:06:51.616Z,998.46
2023-04-02T09:07:51.526Z,998.46
2023-04-02T09:08:51.488Z,998.49
2023-04-02T09:09:51.414Z,998.55
2023-04-02T09:10:51.301Z,998.58
2023-04-02T09:11:51.241Z,998.55
2023-04-02T09:12:51.215Z,998.61
2023-04-02T09:13:51.137Z,998.64
2023-04-02T09:14:51.099Z,998.66
2023-04-02T09:15:55.050Z,998.64
2023-04-02T09:16:50.944Z,998.68
2023-04-02T09:17:54.416Z,998.73
2023-04-02T09:18:50.798Z,998.74
2023-04-02T09:19:50.782Z,998.80
2023-04-02T09:20:50.708Z,998.70
2023-04-02T09:21:50.637Z,998.73
2023-04-02T09:22:50.561Z,998.78
2023-04-02T09:23:50.504Z,998.80
2023-04-02T09:24:50.465Z,998.80
2023-04-02T09:26:02.976Z,998.87
2023-04-02T09:26:50.346Z,998.91
2023-04-02T09:27:50.789Z,998.91
2023-04-02T09:28:50.185Z,998.97
2023-04-02T09:29:50.127Z,998.91
2023-04-02T09:30:50.050Z,999.00
2023-04-02T09:31:50.000Z,999.02
2023-04-02T09:32:49.961Z,999.04
2023-04-02T09:33:51.089Z,999.01
2023-04-02T09:34:49.773Z,999.03
2023-04-02T09:35:49.754Z,999.02
2023-04-02T09:36:49.669Z,999.05
2023-04-02T09:37:49.588Z,999.09
2023-04-02T09:38:49.569Z,999.10
2023-04-02T09:39:49.502Z,999.09
2023-04-02T09:40:49.411Z,999.03
2023-04-02T09:41:59.139Z,999.12
2023-04-02T09:42:49.299Z,999.11
2023-04-02T09:43:49.239Z,999.11
2023-04-02T09:44:49.140Z,999.12
2023-04-02T09:45:49.160Z,999.19
2023-04-02T09:46:49.079Z,999.19
2023-04-02T09:47:49.005Z,999.21
2023-04-02T09:48:48.888Z,999.20
2023-04-02T09:49:49.354Z,999.22
2023-04-02T09:50:48.811Z,999.23
2023-04-02T09:54:07.064Z,999.30
2023-04-02T09:55:07.989Z,999.31
2023-04-02T09:56:07.901Z,999.26
2023-04-02T09:57:07.911Z,999.30
2023-04-02T09:58:07.799Z,999.28
2023-04-02T09:59:07.736Z,999.39
2023-04-02T10:00:10.315Z,999.35
2023-04-02T10:01:07.643Z,999.40
2023-04-02T10:02:07.541Z,999.32
2023-04-02T10:03:07.556Z,999.38
2023-04-02T10:04:07.440Z,999.42
2023-04-02T10:05:07.382Z,999.49
2023-04-02T10:06:07.284Z,999.51
2023-04-02T10:07:07.221Z,999.50
2023-04-02T10:08:07.154Z,999.43
2023-04-02T10:09:07.073Z,999.51
2023-04-02T10:10:07.030Z,999.55
2023-04-02T10:11:06.972Z,999.59
2023-04-02T10:12:06.929Z,999.54
2023-04-02T10:13:06.809Z,999.63
2023-04-02T10:14:06.769Z,999.62
2023-04-02T10:15:06.710Z,999.67
2023-04-02T10:16:06.695Z,999.65
2023-04-02T10:17:06.652Z,999.66
2023-04-02T10:18:06.573Z,999.66
2023-04-02T10:19:06.512Z,999.72
2023-04-02T10:20:06.459Z,999.69
2023-04-02T10:21:06.348Z,999.71
2023-04-02T10:22:06.255Z,999.75
2023-04-02T10:23:06.588Z,999.75
2023-04-02T10:24:06.113Z,999.74
2023-04-02T10:25:06.097Z,999.81
2023-04-02T10:26:06.040Z,999.76
2023-04-02T10:27:05.965Z,999.79
2023-04-02T10:28:05.895Z,999.83
2023-04-02T10:31:24.261Z,999.77
2023-04-02T10:32:25.133Z,999.79
2023-04-02T10:33:25.084Z,999.87
2023-04-02T10:34:25.038Z,999.85
2023-04-02T10:35:25.054Z,999.93
2023-04-02T10:36:24.936Z,999.96
2023-04-02T10:37:24.837Z,999.97
2023-04-02T10:38:24.798Z,999.98
2023-04-02T10:39:24.732Z,1000.02
2023-04-02T10:40:24.632Z,1000.01
2023-04-02T10:41:24.584Z,1000.06
2023-04-02T10:42:24.570Z,1000.06
2023-04-02T10:43:24.487Z,1000.07
2023-04-02T10:44:24.362Z,1000.08
2023-04-02T10:45:24.327Z,1000.09
2023-04-02T10:46:25.579Z,1000.11
2023-04-02T10:47:24.174Z,1000.03
2023-04-02T10:48:25.360Z,1000.09
2023-04-02T10:49:24.138Z,1000.06
2023-04-02T10:50:23.979Z,1000.05
2023-04-02T10:51:23.952Z,1000.06
2023-04-02T10:52:23.856Z,1000.12
2023-04-02T10:53:23.889Z,1000.08
2023-04-02T10:54:23.802Z,1000.10
2023-04-02T10:55:23.723Z,1000.15
2023-04-02T10:56:23.631Z,1000.15
2023-04-02T10:57:23.630Z,1000.16
2023-04-02T10:58:23.486Z,1000.24
2023-04-02T10:59:23.420Z,1000.16
2023-04-02T11:00:23.391Z,1000.26
2023-04-02T11:01:23.339Z,1000.27
2023-04-02T11:02:23.301Z,1000.27
2023-04-02T11:03:23.272Z,1000.27
2023-04-02T11:04:23.143Z,1000.27
2023-04-02T11:05:23.050Z,1000.35
2023-04-02T11:06:23.011Z,1000.33
2023-04-02T11:07:22.933Z,1000.35
2023-04-02T11:08:22.861Z,1000.33
2023-04-02T11:09:22.832Z,1000.35
2023-04-02T11:10:22.733Z,1000.39
2023-04-02T11:11:22.719Z,1000.35
2023-04-02T11:12:22.623Z,1000.35
2023-04-02T11:13:22.645Z,1000.41
2023-04-02T11:14:22.477Z,1000.41
2023-04-02T11:15:22.400Z,1000.38
2023-04-02T11:16:22.405Z,1000.47
2023-04-02T11:17:22.384Z,1000.49
2023-04-02T11:18:22.262Z,1000.51
2023-04-02T11:19:22.188Z,1000.53
2023-04-02T11:20:22.132Z,1000.49
2023-04-02T11:21:22.009Z,1000.56
2023-04-02T11:22:21.967Z,1000.58
2023-04-02T11:23:21.908Z,1000.60
2023-04-02T11:26:40.203Z,1000.65
2023-04-02T11:27:41.144Z,1000.67
2023-04-02T11:28:41.069Z,1000.72
2023-04-02T11:29:40.984Z,1000.72
2023-04-02T11:30:40.950Z,1000.74
2023-04-02T11:31:40.957Z,1000.76
2023-04-02T11:32:40.863Z,1000.73
2023-04-02T11:33:44.741Z,1000.73
2023-04-02T11:34:40.722Z,1000.77
2023-04-02T11:35:40.944Z,1000.82
2023-04-02T11:36:40.562Z,1000.81
2023-04-02T11:37:40.529Z,1000.86
2023-04-02T11:38:40.426Z,1000.84
2023-04-02T11:39:40.418Z,1000.85
2023-04-02T11:40:40.274Z,1000.90
2023-04-02T11:41:40.243Z,1000.90
2023-04-02T11:42:40.226Z,1000.88
2023-04-02T11:43:40.125Z,1000.93
2023-04-02T11:44:40.064Z,1000.85
2023-04-02T11:45:51.953Z,1000.83
2023-04-02T11:46:39.966Z,1000.85
2023-04-02T11:47:39.893Z,1000.93
2023-04-02T11:48:39.783Z,1000.86
2023-04-02T11:49:39.928Z,1000.82
2023-04-02T11:50:39.668Z,1000.80
2023-04-02T11:51:39.606Z,1000.89
2023-04-02T11:52:39.543Z,1000.85
2023-04-02T11:53:39.482Z,1000.84
2023-04-02T11:54:39.422Z,1000.89
2023-04-02T11:55:39.659Z,1000.88
2023-04-02T11:56:39.304Z,1000.88
2023-04-02T11:57:39.377Z,1000.92
2023-04-02T11:58:39.194Z,1000.90
2023-04-02T11:59:39.098Z,1000.94
2023-04-02T12:00:39.042Z,1000.92
2023-04-02T12:03:57.351Z,1000.96
2023-04-02T12:04:58.308Z,1000.98
2023-04-02T12:05:58.226Z,1000.99
2023-04-02T12:06:58.148Z,1001.02
2023-04-02T12:07:58.114Z,1001.04
2023-04-02T12:08:58.445Z,1001.01
2023-04-02T12:09:57.936Z,1001.03
2023-04-02T12:10:57.895Z,1001.07
2023-04-02T12:11:57.837Z,1001.10
2023-04-02T12:12:57.743Z,1001.26
2023-04-02T12:13:57.674Z,1001.10
2023-04-02T12:14:57.665Z,1001.13
2023-04-02T12:15:57.552Z,1001.18
2023-04-02T12:16:57.560Z,1001.21
2023-04-02T12:17:57.429Z,1001.19
2023-04-02T12:18:57.364Z,1001.26
2023-04-02T12:19:57.266Z,1001.28
2023-04-02T12:25:33.977Z,1001.31
2023-04-02T12:26:34.905Z,1001.37
2023-04-02T12:27:34.878Z,1001.40
2023-04-02T12:28:34.802Z,1001.38
2023-04-02T12:29:34.709Z,1001.40
2023-04-02T12:30:34.936Z,1001.43
2023-04-02T12:31:34.582Z,1001.41
2023-04-02T12:32:34.580Z,1001.37
2023-04-02T12:33:34.484Z,1001.43
2023-04-02T12:34:34.399Z,1001.45
2023-04-02T12:35:34.415Z,1001.41
2023-04-02T12:36:34.341Z,1001.42
2023-04-02T12:37:34.204Z,1001.42
2023-04-02T12:38:34.172Z,1001.43
2023-04-02T12:39:34.090Z,1001.42
2023-04-02T12:40:34.332Z,1001.45
2023-04-02T12:41:33.982Z,1001.43
2023-04-02T12:42:54.888Z,1001.44
2023-04-02T12:43:33.842Z,1001.40
2023-04-02T12:44:33.745Z,1001.38
2023-04-02T12:45:33.749Z,1001.37
2023-04-02T12:46:33.691Z,1001.40
2023-04-02T12:47:33.574Z,1001.41
2023-04-02T12:48:33.495Z,1001.36
2023-04-02T12:49:33.481Z,1001.39
2023-04-02T12:50:33.606Z,1001.36
2023-04-02T12:51:33.323Z,1001.35
2023-04-02T12:52:33.258Z,1001.34
2023-04-02T12:53:33.210Z,1001.39
2023-04-02T12:54:33.176Z,1001.38
2023-04-02T12:55:33.072Z,1001.45
2023-04-02T12:56:33.009Z,1001.42
2023-04-02T12:57:32.983Z,1001.44
2023-04-02T12:58:32.884Z,1001.45
2023-04-02T12:59:32.797Z,1001.44
2023-04-02T13:02:51.197Z,1001.45
2023-04-02T13:03:52.079Z,1001.49
2023-04-02T13:04:51.949Z,1001.52
2023-04-02T13:05:51.918Z,1001.55